Main page
METAR-TAF:

METAR-TAF

Airports :

Lenawee County Airport

Adrian, Michigan, United States

latitude: 41-52-04N, longitude: 084-04-46W, elevation: 244 m

Current weather observation

The report was made 43 minutes ago, at 11:15 UTC
Calm wind
Temperature 22°C
Humidity 94%
Pressure 1024 hPa
Visibility: 4.0 km
Overcast at a height of 500 ft
mist

METAR: KADG 211115Z AUTO 00000KT 2 1/2SM BR OVC005 22/21 A3025 RMK AO2 T02220206

Time: 07:58 (11:58 UTC)


TAF: missing

Weather observations and forecasts of more than 4000 airports (METAR and TAF reports).

The available stations are represented by yellow and red dots on the map.

Hover mouse over dot to see the name of the station.

Then click to see weather observations and forecasts.

To change the map : click on the green buttons with a black cross to zoom in, on the green button with a dash to zoom out, or on the green arrows for adjacent maps.


METAR-TAF: